createdAt,value
2022-09-22T00:00:14.002Z,-53
2022-09-22T00:02:15.919Z,-50
2022-09-22T00:03:24.440Z,-50
2022-09-22T00:04:26.383Z,-51
2022-09-22T00:05:28.868Z,-51
2022-09-22T00:07:42.555Z,-50
2022-09-22T00:08:40.706Z,-53
2022-09-22T00:09:40.756Z,-51
2022-09-22T00:10:36.976Z,-50
2022-09-22T00:11:39.112Z,-52
2022-09-22T00:12:34.531Z,-51
2022-09-22T00:13:34.539Z,-53
2022-09-22T00:14:30.970Z,-51
2022-09-22T00:15:42.178Z,-50
2022-09-22T00:15:49.360Z,-51
2022-09-22T00:16:59.524Z,-49
2022-09-22T00:17:55.796Z,-50
2022-09-22T00:18:56.321Z,-52
2022-09-22T00:19:52.493Z,-51
2022-09-22T00:22:00.536Z,-50
2022-09-22T00:22:53.736Z,-52
2022-09-22T00:23:53.439Z,-53
2022-09-22T00:24:52.467Z,-51
2022-09-22T00:26:51.118Z,-52
2022-09-22T00:27:55.299Z,-51
2022-09-22T00:28:49.574Z,-50
2022-09-22T00:29:52.248Z,-49
2022-09-22T00:30:47.373Z,-50
2022-09-22T00:31:50.160Z,-50
2022-09-22T00:32:42.610Z,-51
2022-09-22T00:33:39.840Z,-50
2022-09-22T00:34:42.345Z,-51
2022-09-22T00:35:43.145Z,-50
2022-09-22T00:37:41.726Z,-53
2022-09-22T00:38:40.382Z,-50
2022-09-22T00:39:39.207Z,-52
2022-09-22T00:40:34.105Z,-51
2022-09-22T00:41:47.369Z,-52
2022-09-22T00:42:41.645Z,-52
2022-09-22T00:43:40.467Z,-52
2022-09-22T00:44:39.300Z,-50
2022-09-22T00:47:06.460Z,-51
2022-09-22T00:48:05.451Z,-52
2022-09-22T00:49:04.167Z,-51
2022-09-22T00:50:02.091Z,-50
2022-09-22T00:51:56.361Z,-52
2022-09-22T00:52:56.193Z,-51
2022-09-22T00:53:54.282Z,-52
2022-09-22T00:54:55.103Z,-50
2022-09-22T00:55:52.429Z,-50
2022-09-22T00:56:52.240Z,-50
2022-09-22T00:57:53.863Z,-50
2022-09-22T00:58:56.379Z,-52
2022-09-22T00:59:49.114Z,-50
2022-09-22T01:01:55.537Z,-50
2022-09-22T01:02:49.907Z,-51
2022-09-22T01:03:49.518Z,-52
2022-09-22T01:04:46.288Z,-50
2022-09-22T01:05:46.802Z,-52
2022-09-22T01:06:51.634Z,-50
2022-09-22T01:07:55.306Z,-50
2022-09-22T01:08:53.895Z,-50
2022-09-22T01:09:48.008Z,-50
2022-09-22T01:10:48.951Z,-53
2022-09-22T01:11:49.134Z,-50
2022-09-22T01:12:45.364Z,-50
2022-09-22T01:13:44.198Z,-50
2022-09-22T01:14:38.546Z,-51
2022-09-22T01:15:42.044Z,-51
2022-09-22T01:16:41.651Z,-51
2022-09-22T01:17:36.566Z,-50
2022-09-22T01:18:41.221Z,-50
2022-09-22T01:19:33.742Z,-50
2022-09-22T01:20:38.131Z,-51
2022-09-22T01:21:30.971Z,-50
2022-09-22T01:22:34.103Z,-50
2022-09-22T01:23:28.485Z,-50
2022-09-22T01:24:32.493Z,-52
2022-09-22T01:25:30.539Z,-50
2022-09-22T01:26:32.452Z,-50
2022-09-22T01:27:28.757Z,-51
2022-09-22T01:28:30.542Z,-51
2022-09-22T01:29:26.075Z,-50
2022-09-22T01:30:30.281Z,-50
2022-09-22T01:32:24.271Z,-51
2022-09-22T01:33:19.696Z,-50
2022-09-22T01:34:22.934Z,-51
2022-09-22T01:35:21.908Z,-50
2022-09-22T01:36:24.124Z,-50
2022-09-22T01:37:17.056Z,-50
2022-09-22T01:38:19.786Z,-52
2022-09-22T01:39:19.176Z,-51
2022-09-22T01:40:23.187Z,-50
2022-09-22T01:42:21.209Z,-52
2022-09-22T01:44:47.838Z,-51
2022-09-22T01:45:46.162Z,-50
2022-09-22T01:46:46.168Z,-53
2022-09-22T01:47:41.634Z,-52
2022-09-22T01:48:41.472Z,-53
2022-09-22T01:49:36.767Z,-50
2022-09-22T01:50:37.936Z,-50
2022-09-22T01:52:32.725Z,-52
2022-09-22T01:53:34.836Z,-52
2022-09-22T01:54:38.508Z,-51
2022-09-22T01:56:47.144Z,-52
2022-09-22T01:57:41.737Z,-50
2022-09-22T01:58:43.007Z,-52
2022-09-22T01:59:38.451Z,-50
2022-09-22T02:00:39.707Z,-53
2022-09-22T02:02:38.364Z,-51
2022-09-22T02:03:30.863Z,-51
2022-09-22T02:04:34.305Z,-51
2022-09-22T02:05:29.581Z,-50
2022-09-22T02:06:30.913Z,-51
2022-09-22T02:07:29.079Z,-51
2022-09-22T02:08:27.321Z,-53
2022-09-22T02:09:25.933Z,-50
2022-09-22T02:10:31.070Z,-51
2022-09-22T02:11:25.368Z,-51
2022-09-22T02:12:27.340Z,-50
2022-09-22T02:13:21.672Z,-50
2022-09-22T02:14:21.156Z,-53
2022-09-22T02:15:20.376Z,-50
2022-09-22T02:18:46.112Z,-49
2022-09-22T02:19:46.176Z,-51
2022-09-22T02:21:53.084Z,-50
2022-09-22T02:22:54.687Z,-50
2022-09-22T02:24:02.403Z,-50
2022-09-22T02:25:04.166Z,-51
2022-09-22T02:27:07.414Z,-50
2022-09-22T02:28:05.529Z,-50
2022-09-22T02:29:07.313Z,-51
2022-09-22T02:30:06.313Z,-50
2022-09-22T02:31:19.929Z,-52
2022-09-22T02:31:20.684Z,-52
2022-09-22T02:32:12.082Z,-50
2022-09-22T02:33:08.687Z,-49
2022-09-22T02:34:10.473Z,-51
2022-09-22T02:35:07.579Z,-50
2022-09-22T02:37:06.030Z,-50
2022-09-22T02:38:11.237Z,-49
2022-09-22T02:39:09.304Z,-50
2022-09-22T02:40:07.727Z,-50
2022-09-22T02:42:07.026Z,-50
2022-09-22T02:43:11.643Z,-50
2022-09-22T02:44:13.491Z,-51
2022-09-22T02:45:16.054Z,-50
2022-09-22T02:47:11.221Z,-52
2022-09-22T02:48:14.994Z,-50
2022-09-22T02:49:09.240Z,-52
2022-09-22T02:50:13.774Z,-51
2022-09-22T02:52:16.370Z,-52
2022-09-22T02:53:20.307Z,-50
2022-09-22T02:54:20.820Z,-51
2022-09-22T02:55:22.896Z,-52
2022-09-22T02:57:18.530Z,-51
2022-09-22T02:58:19.273Z,-52
2022-09-22T03:00:26.345Z,-51
2022-09-22T03:02:37.474Z,-52
2022-09-22T03:03:33.942Z,-53
2022-09-22T03:04:34.896Z,-50
2022-09-22T03:05:30.485Z,-51
2022-09-22T03:07:31.749Z,-52
2022-09-22T03:08:32.432Z,-50
2022-09-22T03:09:28.823Z,-50
2022-09-22T03:10:33.379Z,-52
2022-09-22T03:12:28.282Z,-50
2022-09-22T03:13:23.763Z,-50
2022-09-22T03:14:25.483Z,-50
2022-09-22T03:15:23.828Z,-50
2022-09-22T03:15:27.242Z,-50
2022-09-22T03:16:24.656Z,-51
2022-09-22T03:17:20.826Z,-50
2022-09-22T03:18:20.460Z,-50
2022-09-22T03:19:15.822Z,-51
2022-09-22T03:20:19.000Z,-50
2022-09-22T03:22:22.057Z,-52
2022-09-22T03:23:17.642Z,-52
2022-09-22T03:24:15.910Z,-52
2022-09-22T03:25:18.816Z,-50
2022-09-22T03:27:21.907Z,-52
2022-09-22T03:28:14.938Z,-50
2022-09-22T03:29:19.453Z,-50
2022-09-22T03:30:18.911Z,-52
2022-09-22T03:32:13.820Z,-50
2022-09-22T03:34:37.272Z,-51
2022-09-22T03:35:35.426Z,-53
2022-09-22T03:36:35.156Z,-52
2022-09-22T03:37:33.855Z,-50
2022-09-22T03:38:32.902Z,-51
2022-09-22T03:39:29.591Z,-53
2022-09-22T03:40:28.945Z,-51
2022-09-22T03:41:24.329Z,-50
2022-09-22T03:42:23.472Z,-52
2022-09-22T03:43:19.624Z,-50
2022-09-22T03:44:18.073Z,-50
2022-09-22T03:45:26.960Z,-50
2022-09-22T03:47:29.006Z,-51
2022-09-22T03:48:32.096Z,-52
2022-09-22T03:49:27.405Z,-50
2022-09-22T03:50:30.749Z,-52
2022-09-22T03:51:23.691Z,-50
2022-09-22T03:52:25.413Z,-52
2022-09-22T03:53:18.697Z,-50
2022-09-22T03:54:21.129Z,-51
2022-09-22T03:55:21.386Z,-50
2022-09-22T03:57:17.146Z,-51
2022-09-22T03:58:17.078Z,-50
2022-09-22T03:59:16.290Z,-52
2022-09-22T04:00:10.596Z,-50
2022-09-22T04:02:15.255Z,-50
2022-09-22T04:03:18.021Z,-54
2022-09-22T04:04:13.362Z,-50
2022-09-22T04:05:16.179Z,-53
2022-09-22T04:06:08.179Z,-50
2022-09-22T04:07:13.276Z,-50
2022-09-22T04:08:05.763Z,-52
2022-09-22T04:09:02.619Z,-50
2022-09-22T04:10:06.611Z,-51
2022-09-22T04:12:03.013Z,-51
2022-09-22T04:12:55.982Z,-50
2022-09-22T04:15:22.049Z,-52
2022-09-22T04:16:19.616Z,-53
2022-09-22T04:17:21.571Z,-53
2022-09-22T04:18:17.136Z,-50
2022-09-22T04:19:16.179Z,-52
2022-09-22T04:20:10.702Z,-52
2022-09-22T04:22:05.686Z,-50
2022-09-22T04:23:11.794Z,-50
2022-09-22T04:24:07.030Z,-50
2022-09-22T04:25:07.469Z,-51
2022-09-22T04:27:18.974Z,-50
2022-09-22T04:27:19.671Z,-50
2022-09-22T04:27:19.897Z,-50
2022-09-22T04:28:05.407Z,-50
2022-09-22T04:28:58.551Z,-51
2022-09-22T04:29:58.872Z,-50
2022-09-22T04:30:54.393Z,-50
2022-09-22T04:31:55.289Z,-52
2022-09-22T04:32:50.545Z,-51
2022-09-22T04:33:52.321Z,-50
2022-09-22T04:34:44.556Z,-50
2022-09-22T04:35:43.895Z,-51
2022-09-22T04:37:39.677Z,-50
2022-09-22T04:38:42.536Z,-53
2022-09-22T04:39:34.976Z,-50
2022-09-22T04:40:43.687Z,-52
2022-09-22T04:42:39.256Z,-51
2022-09-22T04:43:37.779Z,-50
2022-09-22T04:44:41.859Z,-51
2022-09-22T04:45:39.890Z,-50
2022-09-22T04:46:40.543Z,-52
2022-09-22T04:47:42.477Z,-52
2022-09-22T04:48:40.963Z,-50
2022-09-22T04:49:44.249Z,-50
2022-09-22T04:51:49.969Z,-51
2022-09-22T04:52:46.639Z,-52
2022-09-22T04:54:32.175Z,-50
2022-09-22T04:55:33.491Z,-51
2022-09-22T04:56:34.794Z,-50
2022-09-22T04:57:35.288Z,-50
2022-09-22T04:58:37.327Z,-52
2022-09-22T05:01:06.632Z,-52
2022-09-22T05:02:06.249Z,-51
2022-09-22T05:03:10.034Z,-51
2022-09-22T05:04:10.393Z,-52
2022-09-22T05:05:07.701Z,-52
2022-09-22T05:06:08.667Z,-49
2022-09-22T05:07:13.757Z,-52
2022-09-22T05:08:20.279Z,-52
2022-09-22T05:09:26.355Z,-51
2022-09-22T05:10:24.274Z,-51
2022-09-22T05:12:27.389Z,-50
2022-09-22T05:13:28.352Z,-53
2022-09-22T05:14:26.522Z,-50
2022-09-22T05:15:28.336Z,-50
2022-09-22T05:17:31.135Z,-52
2022-09-22T05:18:30.943Z,-51
2022-09-22T05:19:33.941Z,-53
2022-09-22T05:20:30.333Z,-50
2022-09-22T05:22:36.333Z,-52
2022-09-22T05:22:39.968Z,-52
2022-09-22T05:23:34.026Z,-50
2022-09-22T05:24:36.357Z,-51
2022-09-22T05:25:40.980Z,-52
2022-09-22T05:26:37.581Z,-51
2022-09-22T05:27:41.776Z,-52
2022-09-22T05:28:35.471Z,-51
2022-09-22T05:29:35.161Z,-53
2022-09-22T05:30:36.920Z,-54
2022-09-22T05:31:38.397Z,-52
2022-09-22T05:32:34.800Z,-54
2022-09-22T05:33:42.314Z,-53
2022-09-22T05:34:39.041Z,-53
2022-09-22T05:35:40.735Z,-53
2022-09-22T05:37:37.998Z,-52
2022-09-22T05:38:40.915Z,-54
2022-09-22T05:39:38.027Z,-52
2022-09-22T05:40:44.689Z,-53
2022-09-22T05:42:42.099Z,-52
2022-09-22T05:43:45.380Z,-53
2022-09-22T05:44:40.202Z,-54
2022-09-22T05:46:16.639Z,-53
2022-09-22T05:47:14.897Z,-53
2022-09-22T05:48:15.364Z,-55
2022-09-22T05:49:16.348Z,-53
2022-09-22T05:52:30.182Z,-55
2022-09-22T05:54:06.249Z,-56
2022-09-22T05:55:06.616Z,-55
2022-09-22T05:56:04.859Z,-56
2022-09-22T05:57:06.068Z,-55
2022-09-22T05:58:07.607Z,-56
2022-09-22T05:59:11.148Z,-55
2022-09-22T06:02:31.361Z,-54
2022-09-22T06:03:25.711Z,-56
2022-09-22T06:04:28.405Z,-56
2022-09-22T06:05:29.343Z,-54
2022-09-22T06:06:30.260Z,-55
2022-09-22T06:08:12.877Z,-54
2022-09-22T06:09:09.469Z,-53
2022-09-22T06:10:12.654Z,-54
2022-09-22T06:11:09.115Z,-55
2022-09-22T06:12:47.253Z,-55
2022-09-22T06:14:23.090Z,-55
2022-09-22T06:17:37.697Z,-55
2022-09-22T06:19:17.792Z,-54
2022-09-22T06:22:28.052Z,-57
2022-09-22T06:24:08.192Z,-57
2022-09-22T06:25:03.603Z,-56
2022-09-22T06:26:05.238Z,-56
2022-09-22T06:27:43.912Z,-56
2022-09-22T06:29:21.342Z,-52
2022-09-22T06:32:36.288Z,-56
2022-09-22T06:34:11.982Z,-56
2022-09-22T06:37:31.309Z,-57
2022-09-22T06:39:11.579Z,-55
2022-09-22T06:40:15.357Z,-56
2022-09-22T06:40:17.633Z,-56
2022-09-22T06:42:53.694Z,-56
2022-09-22T06:43:54.830Z,-56
2022-09-22T06:47:26.904Z,-54
2022-09-22T06:48:24.653Z,-54
2022-09-22T06:49:24.948Z,-54
2022-09-22T06:50:20.928Z,-53
2022-09-22T06:51:21.759Z,-54
2022-09-22T06:52:18.167Z,-53
2022-09-22T06:53:24.335Z,-52
2022-09-22T06:54:17.820Z,-52
2022-09-22T06:55:20.087Z,-53
2022-09-22T06:57:10.497Z,-54
2022-09-22T06:58:10.703Z,-53
2022-09-22T06:59:10.329Z,-52
2022-09-22T07:00:07.246Z,-52
2022-09-22T07:02:04.161Z,-53
2022-09-22T07:03:00.461Z,-54
2022-09-22T07:04:02.982Z,-53
2022-09-22T07:04:55.722Z,-52
2022-09-22T07:05:55.901Z,-54
2022-09-22T07:06:52.150Z,-51
2022-09-22T07:07:49.779Z,-53
2022-09-22T07:08:52.708Z,-53
2022-09-22T07:09:48.572Z,-53
2022-09-22T07:11:44.723Z,-52
2022-09-22T07:12:46.906Z,-52
2022-09-22T07:14:19.520Z,-54
2022-09-22T07:17:21.084Z,-52
2022-09-22T07:18:18.229Z,-52
2022-09-22T07:19:16.880Z,-53
2022-09-22T07:20:11.522Z,-54
2022-09-22T07:21:10.359Z,-54
2022-09-22T07:22:04.521Z,-51
2022-09-22T07:23:04.757Z,-51
2022-09-22T07:23:58.450Z,-51
2022-09-22T07:24:57.086Z,-52
2022-09-22T07:26:48.346Z,-51
2022-09-22T07:27:46.672Z,-51
2022-09-22T07:28:40.839Z,-52
2022-09-22T07:29:36.692Z,-50
2022-09-22T07:30:34.478Z,-53
2022-09-22T07:32:25.878Z,-51
2022-09-22T07:33:23.827Z,-55
2022-09-22T07:34:17.991Z,-54
2022-09-22T07:35:19.128Z,-54
2022-09-22T07:37:08.882Z,-52
2022-09-22T07:38:04.931Z,-54
2022-09-22T07:39:03.321Z,-55
2022-09-22T07:39:57.203Z,-55
2022-09-22T07:40:58.344Z,-55
2022-09-22T07:41:50.581Z,-55
2022-09-22T07:42:51.163Z,-54
2022-09-22T07:43:47.730Z,-55
2022-09-22T07:44:44.488Z,-54
2022-09-22T07:45:36.247Z,-54
2022-09-22T07:46:34.864Z,-54
2022-09-22T07:47:29.333Z,-54
2022-09-22T07:48:27.618Z,-55
2022-09-22T07:49:22.665Z,-53
2022-09-22T07:50:18.296Z,-53
2022-09-22T07:53:33.674Z,-49
2022-09-22T07:54:31.600Z,-51
2022-09-22T07:55:28.778Z,-51
2022-09-22T07:56:28.655Z,-53
2022-09-22T07:57:23.820Z,-51
2022-09-22T07:58:26.062Z,-50
2022-09-22T07:59:18.662Z,-50
2022-09-22T08:00:18.597Z,-51
2022-09-22T08:02:13.839Z,-51
2022-09-22T08:03:09.173Z,-51
2022-09-22T08:04:09.288Z,-50
2022-09-22T08:05:05.517Z,-49
2022-09-22T08:06:06.394Z,-52
2022-09-22T08:07:02.610Z,-51
2022-09-22T08:08:03.408Z,-50
2022-09-22T08:08:59.239Z,-49
2022-09-22T08:10:00.167Z,-51
2022-09-22T08:10:56.565Z,-48
2022-09-22T08:11:56.763Z,-52
2022-09-22T08:12:54.705Z,-48
2022-09-22T08:13:54.711Z,-49
2022-09-22T08:14:51.001Z,-49
2022-09-22T08:16:47.538Z,-51
2022-09-22T08:17:47.936Z,-51
2022-09-22T08:18:49.999Z,-50
2022-09-22T08:19:44.439Z,-51
2022-09-22T08:20:46.243Z,-51
2022-09-22T08:21:48.885Z,-50
2022-09-22T08:21:49.673Z,-50
2022-09-22T08:22:46.012Z,-51
2022-09-22T08:23:43.293Z,-49
2022-09-22T08:24:48.151Z,-51
2022-09-22T08:25:42.935Z,-51
2022-09-22T08:26:48.311Z,-51
2022-09-22T08:27:42.969Z,-49
2022-09-22T08:28:47.531Z,-52
2022-09-22T08:29:42.910Z,-49
2022-09-22T08:30:47.068Z,-51
2022-09-22T08:33:05.910Z,-51
2022-09-22T08:34:04.661Z,-50
2022-09-22T08:35:05.513Z,-50
2022-09-22T08:36:01.453Z,-51
2022-09-22T08:37:02.482Z,-52
2022-09-22T08:37:58.795Z,-51
2022-09-22T08:38:57.391Z,-50
2022-09-22T08:39:56.314Z,-49
2022-09-22T08:40:56.294Z,-51
2022-09-22T08:41:52.695Z,-51
2022-09-22T08:42:53.415Z,-51
2022-09-22T08:43:49.749Z,-51
2022-09-22T08:44:50.792Z,-51
2022-09-22T08:45:47.061Z,-51
2022-09-22T08:46:48.123Z,-50
2022-09-22T08:47:44.240Z,-51
2022-09-22T08:48:47.612Z,-51
2022-09-22T08:49:41.858Z,-51
2022-09-22T08:50:42.234Z,-49
2022-09-22T08:51:38.372Z,-51
2022-09-22T08:52:39.487Z,-52
2022-09-22T08:53:35.825Z,-51
2022-09-22T08:54:39.652Z,-50
2022-09-22T08:55:33.477Z,-52
2022-09-22T08:56:34.907Z,-53
2022-09-22T08:57:31.486Z,-51
2022-09-22T08:58:33.115Z,-51
2022-09-22T08:59:29.781Z,-52
2022-09-22T09:00:33.983Z,-53
2022-09-22T09:02:30.066Z,-49
2022-09-22T09:03:27.288Z,-51
2022-09-22T09:04:28.727Z,-50
2022-09-22T09:06:49.110Z,-51
2022-09-22T09:07:48.617Z,-52
2022-09-22T09:08:50.665Z,-52
2022-09-22T09:09:48.019Z,-51
2022-09-22T09:10:49.621Z,-51
2022-09-22T09:11:47.053Z,-51
2022-09-22T09:12:49.212Z,-51
2022-09-22T09:13:46.357Z,-51
2022-09-22T09:14:48.403Z,-51
2022-09-22T09:15:46.376Z,-49
2022-09-22T09:16:47.580Z,-52
2022-09-22T09:17:45.687Z,-50
2022-09-22T09:18:47.022Z,-51
2022-09-22T09:19:44.246Z,-49
2022-09-22T09:20:48.669Z,-51
2022-09-22T09:21:43.867Z,-52
2022-09-22T09:22:48.438Z,-50
2022-09-22T09:25:43.513Z,-51
2022-09-22T09:26:45.634Z,-51
2022-09-22T09:27:48.250Z,-51
2022-09-22T09:28:43.469Z,-52
2022-09-22T09:29:45.547Z,-51
2022-09-22T09:30:43.027Z,-51
2022-09-22T09:32:43.591Z,-51
2022-09-22T09:33:45.655Z,-51
2022-09-22T09:34:44.784Z,-52
2022-09-22T09:35:48.668Z,-51
2022-09-22T09:36:46.382Z,-52
2022-09-22T09:37:45.374Z,-52
2022-09-22T09:38:47.358Z,-51
2022-09-22T09:39:46.520Z,-51
2022-09-22T09:40:47.999Z,-52
2022-09-22T09:41:47.014Z,-49
2022-09-22T09:42:48.903Z,-51
2022-09-22T09:43:47.838Z,-50
2022-09-22T09:44:50.247Z,-51
2022-09-22T09:45:48.913Z,-50
2022-09-22T09:47:49.984Z,-51
2022-09-22T09:48:51.734Z,-52
2022-09-22T09:49:52.749Z,-51
2022-09-22T09:50:52.118Z,-51
2022-09-22T09:51:57.573Z,-51
2022-09-22T09:54:19.314Z,-52
2022-09-22T09:55:26.779Z,-50
2022-09-22T09:55:27.025Z,-50
2022-09-22T09:57:17.930Z,-51
2022-09-22T09:58:19.484Z,-52
2022-09-22T09:59:15.990Z,-52
2022-09-22T10:00:17.393Z,-52
2022-09-22T10:02:15.122Z,-52
2022-09-22T10:03:11.531Z,-51
2022-09-22T10:04:13.035Z,-52
2022-09-22T10:05:09.498Z,-51
2022-09-22T10:06:13.509Z,-52
2022-09-22T10:07:07.417Z,-51
2022-09-22T10:08:11.443Z,-54
2022-09-22T10:09:05.801Z,-54
2022-09-22T10:10:06.604Z,-53
2022-09-22T10:12:04.265Z,-52
2022-09-22T10:13:04.240Z,-53
2022-09-22T10:14:00.589Z,-54
2022-09-22T10:15:01.735Z,-52
2022-09-22T10:17:01.536Z,-53
2022-09-22T10:17:55.194Z,-53
2022-09-22T10:18:58.790Z,-52
2022-09-22T10:19:52.887Z,-51
2022-09-22T10:20:56.475Z,-54
2022-09-22T10:21:50.096Z,-54
2022-09-22T10:22:53.592Z,-54
2022-09-22T10:23:48.477Z,-54
2022-09-22T10:24:48.184Z,-51
2022-09-22T10:25:44.121Z,-53
2022-09-22T10:26:47.573Z,-53
2022-09-22T10:27:41.539Z,-53
2022-09-22T10:28:44.662Z,-55
2022-09-22T10:29:37.915Z,-54
2022-09-22T10:30:39.012Z,-53
2022-09-22T10:33:54.358Z,-51
2022-09-22T10:34:53.757Z,-51
2022-09-22T10:35:54.661Z,-52
2022-09-22T10:36:50.990Z,-51
2022-09-22T10:37:51.521Z,-51
2022-09-22T10:38:47.733Z,-52
2022-09-22T10:39:48.227Z,-50
2022-09-22T10:40:44.571Z,-51
2022-09-22T10:41:44.818Z,-51
2022-09-22T10:42:40.814Z,-51
2022-09-22T10:43:41.528Z,-51
2022-09-22T10:44:40.122Z,-51
2022-09-22T10:45:38.543Z,-51
2022-09-22T10:46:34.911Z,-50
2022-09-22T10:47:35.312Z,-50
2022-09-22T10:48:31.670Z,-51
2022-09-22T10:49:31.983Z,-50
2022-09-22T10:50:28.433Z,-51
2022-09-22T10:51:26.021Z,-52
2022-09-22T10:52:26.644Z,-53
2022-09-22T10:53:22.613Z,-50
2022-09-22T10:54:25.514Z,-49
2022-09-22T10:55:18.903Z,-52
2022-09-22T10:56:21.877Z,-51
2022-09-22T10:57:15.195Z,-51
2022-09-22T10:58:13.319Z,-50
2022-09-22T10:59:13.878Z,-51
2022-09-22T11:00:09.529Z,-51
2022-09-22T11:02:07.019Z,-51
2022-09-22T11:03:09.316Z,-51
2022-09-22T11:04:02.528Z,-50
2022-09-22T11:05:04.072Z,-51
2022-09-22T11:06:58.077Z,-51
2022-09-22T11:08:01.423Z,-51
2022-09-22T11:08:54.516Z,-50
2022-09-22T11:10:35.086Z,-51
2022-09-22T11:12:52.074Z,-51
2022-09-22T11:13:49.515Z,-49
2022-09-22T11:14:49.235Z,-52
2022-09-22T11:15:44.467Z,-49
2022-09-22T11:16:43.874Z,-52
2022-09-22T11:17:39.085Z,-51
2022-09-22T11:18:39.787Z,-51
2022-09-22T11:19:33.300Z,-48
2022-09-22T11:20:32.644Z,-51
2022-09-22T11:21:27.230Z,-49
2022-09-22T11:22:26.784Z,-52
2022-09-22T11:23:21.481Z,-50
2022-09-22T11:24:21.167Z,-52
2022-09-22T11:25:16.323Z,-51
2022-09-22T11:27:10.331Z,-51
2022-09-22T11:28:09.367Z,-52
2022-09-22T11:29:04.600Z,-51
2022-09-22T11:30:01.553Z,-51
2022-09-22T11:31:55.375Z,-52
2022-09-22T11:32:55.019Z,-51
2022-09-22T11:33:49.473Z,-52
2022-09-22T11:34:49.740Z,-51
2022-09-22T11:35:44.231Z,-51
2022-09-22T11:36:51.454Z,-51
2022-09-22T11:37:44.794Z,-51
2022-09-22T11:38:37.149Z,-49
2022-09-22T11:39:38.993Z,-49
2022-09-22T11:40:32.869Z,-51
2022-09-22T11:41:36.340Z,-50
2022-09-22T11:42:28.889Z,-49
2022-09-22T11:43:27.879Z,-51
2022-09-22T11:44:22.358Z,-50
2022-09-22T11:45:21.677Z,-51
2022-09-22T11:47:18.209Z,-51
2022-09-22T11:48:10.369Z,-50
2022-09-22T11:50:29.116Z,-50
2022-09-22T11:51:30.207Z,-49
2022-09-22T11:52:26.392Z,-51
2022-09-22T11:53:26.786Z,-52
2022-09-22T11:54:25.913Z,-51
2022-09-22T11:55:21.743Z,-49
2022-09-22T11:56:22.641Z,-52
2022-09-22T11:57:18.957Z,-50
2022-09-22T11:58:19.253Z,-51
2022-09-22T11:59:15.491Z,-51
2022-09-22T12:00:15.395Z,-49
2022-09-22T12:01:13.385Z,-50
2022-09-22T12:02:11.573Z,-49
2022-09-22T12:03:07.248Z,-49
2022-09-22T12:04:07.835Z,-51
2022-09-22T12:05:04.071Z,-51
2022-09-22T12:06:06.838Z,-49
2022-09-22T12:07:00.186Z,-51
2022-09-22T12:07:58.529Z,-50
2022-09-22T12:08:59.118Z,-52
2022-09-22T12:09:55.398Z,-52
2022-09-22T12:10:58.305Z,-51
2022-09-22T12:11:52.755Z,-51
2022-09-22T12:12:52.302Z,-51
2022-09-22T12:13:47.983Z,-53
2022-09-22T12:14:48.595Z,-54
2022-09-22T12:15:44.283Z,-54
2022-09-22T12:16:43.464Z,-54
2022-09-22T12:17:42.937Z,-53
2022-09-22T12:18:39.386Z,-51
2022-09-22T12:19:39.780Z,-55
2022-09-22T12:20:35.482Z,-53
2022-09-22T12:21:36.255Z,-53
2022-09-22T12:22:31.891Z,-54
2022-09-22T12:23:35.168Z,-55
2022-09-22T12:25:11.063Z,-53
2022-09-22T12:25:20.772Z,-53
2022-09-22T12:27:27.689Z,-50
2022-09-22T12:28:25.776Z,-51
2022-09-22T12:29:26.011Z,-51
2022-09-22T12:30:21.649Z,-49
2022-09-22T12:31:21.897Z,-51
2022-09-22T12:32:16.877Z,-52
2022-09-22T12:33:16.788Z,-51
2022-09-22T12:34:12.253Z,-50
2022-09-22T12:35:13.278Z,-51
2022-09-22T12:36:08.597Z,-50
2022-09-22T12:37:08.131Z,-51
2022-09-22T12:38:03.488Z,-51
2022-09-22T12:39:02.978Z,-50
2022-09-22T12:39:58.202Z,-51
2022-09-22T12:40:58.583Z,-51
2022-09-22T12:41:53.898Z,-50
2022-09-22T12:42:57.166Z,-51
2022-09-22T12:43:49.648Z,-51
2022-09-22T12:44:49.791Z,-51
2022-09-22T12:45:45.141Z,-50
2022-09-22T12:46:44.759Z,-51
2022-09-22T12:47:40.006Z,-52
2022-09-22T12:48:39.683Z,-51
2022-09-22T12:49:36.023Z,-49
2022-09-22T12:50:35.281Z,-51
2022-09-22T12:51:30.121Z,-51
2022-09-22T12:52:32.514Z,-51
2022-09-22T12:53:25.299Z,-50
2022-09-22T12:54:27.307Z,-52
2022-09-22T12:55:19.629Z,-53
2022-09-22T12:56:21.982Z,-52
2022-09-22T12:56:36.800Z,-51
2022-09-22T12:57:33.748Z,-50
2022-09-22T12:58:35.001Z,-53
2022-09-22T12:59:34.534Z,-51
2022-09-22T13:00:32.870Z,-51
2022-09-22T13:01:30.145Z,-50
2022-09-22T13:02:25.032Z,-49
2022-09-22T13:03:24.648Z,-51
2022-09-22T13:04:19.965Z,-50
2022-09-22T13:06:36.493Z,-51
2022-09-22T13:07:37.096Z,-52
2022-09-22T13:08:32.376Z,-55
2022-09-22T13:09:31.771Z,-54
2022-09-22T13:10:27.183Z,-56
2022-09-22T13:11:27.108Z,-55
2022-09-22T13:12:21.728Z,-52
2022-09-22T13:13:23.878Z,-55
2022-09-22T13:14:18.478Z,-53
2022-09-22T13:15:16.016Z,-53
2022-09-22T13:16:12.216Z,-53
2022-09-22T13:17:10.883Z,-53
2022-09-22T13:18:08.095Z,-56
2022-09-22T13:19:08.277Z,-54
2022-09-22T13:20:03.613Z,-55
2022-09-22T13:21:03.745Z,-54
2022-09-22T13:21:58.985Z,-55
2022-09-22T13:22:58.606Z,-55
2022-09-22T13:23:53.424Z,-55
2022-09-22T13:24:53.108Z,-55
2022-09-22T13:25:48.341Z,-55
2022-09-22T13:26:49.328Z,-56
2022-09-22T13:27:47.301Z,-55
2022-09-22T13:28:42.188Z,-54
2022-09-22T13:29:39.455Z,-56
2022-09-22T13:30:42.084Z,-55
2022-09-22T13:31:34.667Z,-53
2022-09-22T13:32:36.709Z,-54
2022-09-22T13:33:29.350Z,-54
2022-09-22T13:34:26.743Z,-56
2022-09-22T13:35:23.984Z,-53
2022-09-22T13:36:21.620Z,-54
2022-09-22T13:37:18.720Z,-54
2022-09-22T13:38:16.205Z,-54
2022-09-22T13:39:15.907Z,-55
2022-09-22T13:40:11.371Z,-55
2022-09-22T13:42:11.761Z,-54
2022-09-22T13:42:35.890Z,-54
2022-09-22T13:44:48.046Z,-52
2022-09-22T13:45:45.751Z,-52
2022-09-22T13:47:41.750Z,-51
2022-09-22T13:48:39.232Z,-49
2022-09-22T13:49:37.760Z,-52
2022-09-22T13:50:35.420Z,-52
2022-09-22T13:51:37.796Z,-52
2022-09-22T13:52:30.484Z,-51
2022-09-22T13:53:29.651Z,-51
2022-09-22T13:54:27.403Z,-52
2022-09-22T13:55:24.933Z,-50
2022-09-22T13:57:20.814Z,-51
2022-09-22T13:58:18.284Z,-51
2022-09-22T13:59:15.835Z,-51
2022-09-22T14:00:13.818Z,-51
2022-09-22T14:01:13.833Z,-51
2022-09-22T14:02:09.595Z,-51
2022-09-22T14:03:06.914Z,-51
2022-09-22T14:04:04.433Z,-51
2022-09-22T14:05:03.035Z,-50
2022-09-22T14:06:00.434Z,-51
2022-09-22T14:07:03.105Z,-51
2022-09-22T14:08:11.169Z,-51
2022-09-22T14:08:12.879Z,-51
2022-09-22T14:08:12.941Z,-51
2022-09-22T14:08:56.835Z,-52
2022-09-22T14:09:53.182Z,-50
2022-09-22T14:10:55.741Z,-50
2022-09-22T14:12:47.510Z,-51
2022-09-22T14:13:47.080Z,-51
2022-09-22T14:14:46.971Z,-51
2022-09-22T14:15:42.323Z,-50
2022-09-22T14:17:37.921Z,-51
2022-09-22T14:18:35.468Z,-51
2022-09-22T14:19:33.446Z,-51
2022-09-22T14:20:31.002Z,-50
2022-09-22T14:22:47.620Z,-52
2022-09-22T14:23:45.369Z,-52
2022-09-22T14:24:45.295Z,-51
2022-09-22T14:25:40.057Z,-50
2022-09-22T14:26:38.900Z,-51
2022-09-22T14:27:38.383Z,-51
2022-09-22T14:28:33.911Z,-52
2022-09-22T14:29:34.095Z,-52
2022-09-22T14:30:28.797Z,-51
2022-09-22T14:31:31.288Z,-53
2022-09-22T14:32:24.014Z,-49
2022-09-22T14:33:23.797Z,-51
2022-09-22T14:34:18.526Z,-52
2022-09-22T14:35:18.255Z,-51
2022-09-22T14:36:13.619Z,-50
2022-09-22T14:37:12.882Z,-51
2022-09-22T14:38:16.727Z,-50
2022-09-22T14:38:22.072Z,-50
2022-09-22T14:38:23.083Z,-50
2022-09-22T14:39:11.277Z,-51
2022-09-22T14:40:10.383Z,-50
2022-09-22T14:42:05.625Z,-51
2022-09-22T14:43:01.528Z,-51
2022-09-22T14:43:58.746Z,-51
2022-09-22T14:44:56.516Z,-51
2022-09-22T14:45:53.267Z,-51
2022-09-22T14:46:53.262Z,-51
2022-09-22T14:47:48.466Z,-51
2022-09-22T14:48:48.762Z,-52
2022-09-22T14:49:44.134Z,-50
2022-09-22T14:50:46.160Z,-51
2022-09-22T14:52:38.642Z,-52
2022-09-22T14:53:33.751Z,-50
2022-09-22T14:54:33.991Z,-51
2022-09-22T14:55:29.182Z,-51
2022-09-22T14:56:28.769Z,-52
2022-09-22T14:57:23.391Z,-50
2022-09-22T14:58:25.740Z,-51
2022-09-22T14:59:18.717Z,-49
2022-09-22T15:00:20.923Z,-49
2022-09-22T15:02:15.607Z,-52
2022-09-22T15:03:08.325Z,-50
2022-09-22T15:04:11.046Z,-51
2022-09-22T15:05:04.122Z,-50
2022-09-22T15:06:42.978Z,-51
2022-09-22T15:07:41.887Z,-49
2022-09-22T15:08:40.397Z,-54
2022-09-22T15:09:35.806Z,-52
2022-09-22T15:10:35.962Z,-53
2022-09-22T15:12:14.731Z,-54
2022-09-22T15:15:06.204Z,-51
2022-09-22T15:16:03.477Z,-51
2022-09-22T15:17:00.612Z,-51
2022-09-22T15:18:00.062Z,-51
2022-09-22T15:18:55.258Z,-51
2022-09-22T15:19:53.704Z,-51
2022-09-22T15:20:47.991Z,-51
2022-09-22T15:21:51.855Z,-52
2022-09-22T15:22:49.936Z,-50
2022-09-22T15:23:50.834Z,-50